sensor_id;sensor_type;location;lat;lon;timestamp;P1;durP1;ratioP1;P2;durP2;ratioP2
25345;SDS011;13300;51.032;3.710;2022-08-03T00:01:34;8.20;;;2.15;;
25345;SDS011;13300;51.032;3.710;2022-08-03T00:04:00;9.73;;;1.90;;
25345;SDS011;13300;51.032;3.710;2022-08-03T00:06:26;7.40;;;1.75;;
25345;SDS011;13300;51.032;3.710;2022-08-03T00:08:52;9.13;;;2.00;;
25345;SDS011;13300;51.032;3.710;2022-08-03T00:11:18;8.32;;;2.05;;
25345;SDS011;13300;51.032;3.710;2022-08-03T00:13:44;9.48;;;2.15;;
25345;SDS011;13300;51.032;3.710;2022-08-03T00:16:10;6.45;;;2.25;;
25345;SDS011;13300;51.032;3.710;2022-08-03T00:18:36;9.35;;;2.17;;
25345;SDS011;13300;51.032;3.710;2022-08-03T00:21:02;4.90;;;1.88;;
25345;SDS011;13300;51.032;3.710;2022-08-03T00:23:28;7.15;;;1.83;;
25345;SDS011;13300;51.032;3.710;2022-08-03T00:25:54;7.60;;;2.20;;
25345;SDS011;13300;51.032;3.710;2022-08-03T00:28:20;6.43;;;1.90;;
25345;SDS011;13300;51.032;3.710;2022-08-03T00:30:46;7.47;;;2.13;;
25345;SDS011;13300;51.032;3.710;2022-08-03T00:33:12;9.27;;;1.75;;
25345;SDS011;13300;51.032;3.710;2022-08-03T00:35:38;9.63;;;1.88;;
25345;SDS011;13300;51.032;3.710;2022-08-03T00:38:07;8.48;;;2.35;;
25345;SDS011;13300;51.032;3.710;2022-08-03T00:40:38;10.05;;;2.72;;
25345;SDS011;13300;51.032;3.710;2022-08-03T00:43:05;6.22;;;1.80;;
25345;SDS011;13300;51.032;3.710;2022-08-03T00:45:35;8.32;;;2.13;;
25345;SDS011;13300;51.032;3.710;2022-08-03T00:48:04;6.43;;;1.80;;
25345;SDS011;13300;51.032;3.710;2022-08-03T00:50:34;7.22;;;2.05;;
25345;SDS011;13300;51.032;3.710;2022-08-03T00:53:03;9.68;;;2.47;;
25345;SDS011;13300;51.032;3.710;2022-08-03T00:55:29;8.13;;;2.08;;
25345;SDS011;13300;51.032;3.710;2022-08-03T00:57:55;8.30;;;2.33;;
25345;SDS011;13300;51.032;3.710;2022-08-03T01:00:23;7.38;;;2.13;;
25345;SDS011;13300;51.032;3.710;2022-08-03T01:02:51;7.13;;;2.10;;
25345;SDS011;13300;51.032;3.710;2022-08-03T01:05:18;6.38;;;2.15;;
25345;SDS011;13300;51.032;3.710;2022-08-03T01:08:05;6.10;;;2.20;;
25345;SDS011;13300;51.032;3.710;2022-08-03T01:10:40;10.07;;;1.98;;
25345;SDS011;13300;51.032;3.710;2022-08-03T01:16:08;7.25;;;1.80;;
25345;SDS011;13300;51.032;3.710;2022-08-03T01:21:15;6.93;;;2.40;;
25345;SDS011;13300;51.032;3.710;2022-08-03T01:23:53;9.95;;;1.73;;
25345;SDS011;13300;51.032;3.710;2022-08-03T01:26:47;9.18;;;1.80;;
25345;SDS011;13300;51.032;3.710;2022-08-03T01:32:19;4.32;;;1.40;;
25345;SDS011;13300;51.032;3.710;2022-08-03T01:34:54;6.53;;;1.83;;
25345;SDS011;13300;51.032;3.710;2022-08-03T01:37:31;6.50;;;1.83;;
25345;SDS011;13300;51.032;3.710;2022-08-03T01:40:02;4.78;;;1.90;;
25345;SDS011;13300;51.032;3.710;2022-08-03T01:42:30;5.13;;;2.03;;
25345;SDS011;13300;51.032;3.710;2022-08-03T01:44:56;8.95;;;1.85;;
25345;SDS011;13300;51.032;3.710;2022-08-03T01:47:24;7.55;;;1.90;;
25345;SDS011;13300;51.032;3.710;2022-08-03T01:49:52;7.18;;;1.73;;
25345;SDS011;13300;51.032;3.710;2022-08-03T01:52:20;7.93;;;2.13;;
25345;SDS011;13300;51.032;3.710;2022-08-03T01:54:48;6.25;;;1.83;;
25345;SDS011;13300;51.032;3.710;2022-08-03T01:57:16;6.20;;;2.15;;
25345;SDS011;13300;51.032;3.710;2022-08-03T01:59:44;7.80;;;2.05;;
25345;SDS011;13300;51.032;3.710;2022-08-03T02:02:13;5.95;;;1.70;;
25345;SDS011;13300;51.032;3.710;2022-08-03T02:04:41;7.68;;;2.20;;
25345;SDS011;13300;51.032;3.710;2022-08-03T02:07:08;10.32;;;2.17;;
25345;SDS011;13300;51.032;3.710;2022-08-03T02:09:36;8.60;;;2.22;;
25345;SDS011;13300;51.032;3.710;2022-08-03T02:12:06;7.65;;;1.85;;
25345;SDS011;13300;51.032;3.710;2022-08-03T02:14:34;5.68;;;2.00;;
25345;SDS011;13300;51.032;3.710;2022-08-03T02:17:00;8.25;;;2.40;;
25345;SDS011;13300;51.032;3.710;2022-08-03T02:19:27;7.20;;;2.30;;
25345;SDS011;13300;51.032;3.710;2022-08-03T02:21:54;6.97;;;2.10;;
25345;SDS011;13300;51.032;3.710;2022-08-03T02:24:22;8.88;;;2.90;;
25345;SDS011;13300;51.032;3.710;2022-08-03T02:26:47;8.75;;;2.15;;
25345;SDS011;13300;51.032;3.710;2022-08-03T02:29:17;6.88;;;2.13;;
25345;SDS011;13300;51.032;3.710;2022-08-03T02:31:47;7.82;;;2.10;;
25345;SDS011;13300;51.032;3.710;2022-08-03T02:34:15;5.07;;;1.83;;
25345;SDS011;13300;51.032;3.710;2022-08-03T02:36:44;11.38;;;2.28;;
25345;SDS011;13300;51.032;3.710;2022-08-03T02:41:42;8.75;;;2.75;;
25345;SDS011;13300;51.032;3.710;2022-08-03T02:44:11;7.10;;;2.08;;
25345;SDS011;13300;51.032;3.710;2022-08-03T02:46:40;4.28;;;1.90;;
25345;SDS011;13300;51.032;3.710;2022-08-03T02:49:08;7.40;;;2.20;;
25345;SDS011;13300;51.032;3.710;2022-08-03T02:51:37;7.32;;;1.88;;
25345;SDS011;13300;51.032;3.710;2022-08-03T02:54:05;6.55;;;2.38;;
25345;SDS011;13300;51.032;3.710;2022-08-03T02:56:33;5.43;;;1.60;;
25345;SDS011;13300;51.032;3.710;2022-08-03T02:59:00;7.68;;;2.22;;
25345;SDS011;13300;51.032;3.710;2022-08-03T03:01:27;8.55;;;2.38;;
25345;SDS011;13300;51.032;3.710;2022-08-03T03:03:55;8.95;;;2.22;;
25345;SDS011;13300;51.032;3.710;2022-08-03T03:06:22;6.45;;;2.20;;
25345;SDS011;13300;51.032;3.710;2022-08-03T03:08:49;8.85;;;2.58;;
25345;SDS011;13300;51.032;3.710;2022-08-03T03:11:17;11.35;;;2.40;;
25345;SDS011;13300;51.032;3.710;2022-08-03T03:13:45;11.50;;;2.38;;
25345;SDS011;13300;51.032;3.710;2022-08-03T03:16:13;8.35;;;2.50;;
25345;SDS011;13300;51.032;3.710;2022-08-03T03:18:40;7.18;;;2.22;;
25345;SDS011;13300;51.032;3.710;2022-08-03T03:21:08;6.53;;;2.17;;
25345;SDS011;13300;51.032;3.710;2022-08-03T03:23:35;7.22;;;2.65;;
25345;SDS011;13300;51.032;3.710;2022-08-03T03:29:25;6.30;;;2.03;;
25345;SDS011;13300;51.032;3.710;2022-08-03T03:31:52;7.70;;;2.30;;
25345;SDS011;13300;51.032;3.710;2022-08-03T03:34:18;8.52;;;2.30;;
25345;SDS011;13300;51.032;3.710;2022-08-03T03:36:44;8.73;;;2.50;;
25345;SDS011;13300;51.032;3.710;2022-08-03T03:39:10;5.57;;;2.13;;
25345;SDS011;13300;51.032;3.710;2022-08-03T03:41:36;5.68;;;2.35;;
25345;SDS011;13300;51.032;3.710;2022-08-03T03:44:03;12.68;;;2.72;;
25345;SDS011;13300;51.032;3.710;2022-08-03T03:46:29;6.65;;;2.13;;
25345;SDS011;13300;51.032;3.710;2022-08-03T03:48:56;4.30;;;2.25;;
25345;SDS011;13300;51.032;3.710;2022-08-03T03:51:27;6.43;;;2.40;;
25345;SDS011;13300;51.032;3.710;2022-08-03T03:53:56;6.45;;;2.20;;
25345;SDS011;13300;51.032;3.710;2022-08-03T03:56:23;9.23;;;2.70;;
25345;SDS011;13300;51.032;3.710;2022-08-03T03:58:49;7.30;;;2.13;;
25345;SDS011;13300;51.032;3.710;2022-08-03T04:01:16;8.65;;;2.65;;
25345;SDS011;13300;51.032;3.710;2022-08-03T04:03:42;11.82;;;2.75;;
25345;SDS011;13300;51.032;3.710;2022-08-03T04:08:33;7.20;;;2.55;;
25345;SDS011;13300;51.032;3.710;2022-08-03T04:13:55;10.23;;;2.45;;
25345;SDS011;13300;51.032;3.710;2022-08-03T04:16:45;10.10;;;2.53;;
25345;SDS011;13300;51.032;3.710;2022-08-03T04:19:44;7.78;;;2.50;;
25345;SDS011;13300;51.032;3.710;2022-08-03T04:22:16;8.18;;;2.28;;
25345;SDS011;13300;51.032;3.710;2022-08-03T04:24:46;8.70;;;2.13;;
25345;SDS011;13300;51.032;3.710;2022-08-03T04:27:17;7.80;;;2.60;;
25345;SDS011;13300;51.032;3.710;2022-08-03T04:29:50;8.15;;;2.38;;
25345;SDS011;13300;51.032;3.710;2022-08-03T04:32:19;9.33;;;2.60;;
25345;SDS011;13300;51.032;3.710;2022-08-03T04:34:49;6.38;;;2.55;;
25345;SDS011;13300;51.032;3.710;2022-08-03T04:37:39;13.45;;;3.13;;
25345;SDS011;13300;51.032;3.710;2022-08-03T04:40:09;8.02;;;2.70;;
25345;SDS011;13300;51.032;3.710;2022-08-03T04:42:39;11.30;;;2.53;;
25345;SDS011;13300;51.032;3.710;2022-08-03T04:45:07;6.97;;;2.08;;
25345;SDS011;13300;51.032;3.710;2022-08-03T04:47:36;10.15;;;2.30;;
25345;SDS011;13300;51.032;3.710;2022-08-03T04:50:04;9.10;;;2.80;;
25345;SDS011;13300;51.032;3.710;2022-08-03T04:52:30;8.48;;;2.63;;
25345;SDS011;13300;51.032;3.710;2022-08-03T04:54:57;7.38;;;2.47;;
25345;SDS011;13300;51.032;3.710;2022-08-03T04:57:23;7.30;;;2.58;;
25345;SDS011;13300;51.032;3.710;2022-08-03T04:59:50;7.07;;;2.40;;
25345;SDS011;13300;51.032;3.710;2022-08-03T05:02:19;5.18;;;2.72;;
25345;SDS011;13300;51.032;3.710;2022-08-03T05:04:45;8.23;;;2.15;;
25345;SDS011;13300;51.032;3.710;2022-08-03T05:07:14;6.95;;;2.42;;
25345;SDS011;13300;51.032;3.710;2022-08-03T05:09:41;11.18;;;2.50;;
25345;SDS011;13300;51.032;3.710;2022-08-03T05:12:07;6.25;;;2.22;;
25345;SDS011;13300;51.032;3.710;2022-08-03T05:14:34;6.68;;;2.65;;
25345;SDS011;13300;51.032;3.710;2022-08-03T05:17:02;10.93;;;2.50;;
25345;SDS011;13300;51.032;3.710;2022-08-03T05:19:31;11.33;;;2.70;;
25345;SDS011;13300;51.032;3.710;2022-08-03T05:21:57;14.35;;;2.47;;
25345;SDS011;13300;51.032;3.710;2022-08-03T05:24:23;7.88;;;2.15;;
25345;SDS011;13300;51.032;3.710;2022-08-03T05:26:49;6.05;;;2.03;;
25345;SDS011;13300;51.032;3.710;2022-08-03T05:29:15;9.95;;;3.03;;
25345;SDS011;13300;51.032;3.710;2022-08-03T05:31:43;10.50;;;3.05;;
25345;SDS011;13300;51.032;3.710;2022-08-03T05:34:09;7.80;;;2.60;;
25345;SDS011;13300;51.032;3.710;2022-08-03T05:36:35;9.75;;;2.50;;
25345;SDS011;13300;51.032;3.710;2022-08-03T05:39:00;15.18;;;2.58;;
25345;SDS011;13300;51.032;3.710;2022-08-03T05:41:26;9.88;;;2.35;;
25345;SDS011;13300;51.032;3.710;2022-08-03T05:43:53;7.88;;;2.03;;
25345;SDS011;13300;51.032;3.710;2022-08-03T05:46:19;6.25;;;2.28;;
25345;SDS011;13300;51.032;3.710;2022-08-03T05:48:49;9.70;;;2.97;;
25345;SDS011;13300;51.032;3.710;2022-08-03T05:51:14;7.35;;;2.42;;
25345;SDS011;13300;51.032;3.710;2022-08-03T05:53:41;8.60;;;2.47;;
25345;SDS011;13300;51.032;3.710;2022-08-03T05:56:09;9.02;;;2.25;;
25345;SDS011;13300;51.032;3.710;2022-08-03T05:58:42;10.15;;;2.50;;
25345;SDS011;13300;51.032;3.710;2022-08-03T06:01:08;11.55;;;2.33;;
25345;SDS011;13300;51.032;3.710;2022-08-03T06:03:36;9.68;;;2.25;;
25345;SDS011;13300;51.032;3.710;2022-08-03T06:06:01;7.22;;;2.42;;
25345;SDS011;13300;51.032;3.710;2022-08-03T06:08:27;8.77;;;2.38;;
25345;SDS011;13300;51.032;3.710;2022-08-03T06:10:53;10.18;;;2.22;;
25345;SDS011;13300;51.032;3.710;2022-08-03T06:13:20;13.88;;;3.20;;
25345;SDS011;13300;51.032;3.710;2022-08-03T06:15:46;9.00;;;2.10;;
25345;SDS011;13300;51.032;3.710;2022-08-03T06:18:11;9.15;;;2.35;;
25345;SDS011;13300;51.032;3.710;2022-08-03T06:20:37;11.38;;;2.13;;
25345;SDS011;13300;51.032;3.710;2022-08-03T06:23:03;10.63;;;2.63;;
25345;SDS011;13300;51.032;3.710;2022-08-03T06:25:28;11.32;;;3.00;;
25345;SDS011;13300;51.032;3.710;2022-08-03T06:27:56;10.73;;;2.03;;
25345;SDS011;13300;51.032;3.710;2022-08-03T06:30:30;8.90;;;2.30;;
25345;SDS011;13300;51.032;3.710;2022-08-03T06:32:58;7.07;;;2.53;;
25345;SDS011;13300;51.032;3.710;2022-08-03T06:35:24;10.20;;;2.58;;
25345;SDS011;13300;51.032;3.710;2022-08-03T06:37:52;13.15;;;3.10;;
25345;SDS011;13300;51.032;3.710;2022-08-03T06:40:19;14.68;;;2.60;;
25345;SDS011;13300;51.032;3.710;2022-08-03T06:42:59;8.05;;;2.03;;
25345;SDS011;13300;51.032;3.710;2022-08-03T06:45:26;11.18;;;2.30;;
25345;SDS011;13300;51.032;3.710;2022-08-03T06:48:09;10.20;;;2.85;;
25345;SDS011;13300;51.032;3.710;2022-08-03T06:50:36;11.25;;;2.33;;
25345;SDS011;13300;51.032;3.710;2022-08-03T06:53:03;12.07;;;2.50;;
25345;SDS011;13300;51.032;3.710;2022-08-03T06:55:30;11.93;;;3.17;;
25345;SDS011;13300;51.032;3.710;2022-08-03T06:57:56;11.35;;;2.25;;
25345;SDS011;13300;51.032;3.710;2022-08-03T07:00:22;14.63;;;2.90;;
25345;SDS011;13300;51.032;3.710;2022-08-03T07:02:48;11.20;;;2.42;;
25345;SDS011;13300;51.032;3.710;2022-08-03T07:05:14;13.07;;;2.40;;
25345;SDS011;13300;51.032;3.710;2022-08-03T07:07:40;17.48;;;2.70;;
25345;SDS011;13300;51.032;3.710;2022-08-03T07:10:06;10.98;;;2.22;;
25345;SDS011;13300;51.032;3.710;2022-08-03T07:12:33;10.40;;;1.98;;
25345;SDS011;13300;51.032;3.710;2022-08-03T07:14:59;12.32;;;2.17;;
25345;SDS011;13300;51.032;3.710;2022-08-03T07:17:26;10.07;;;1.92;;
25345;SDS011;13300;51.032;3.710;2022-08-03T07:19:53;13.10;;;2.22;;
25345;SDS011;13300;51.032;3.710;2022-08-03T07:22:19;8.60;;;2.38;;
25345;SDS011;13300;51.032;3.710;2022-08-03T07:24:45;10.90;;;2.35;;
25345;SDS011;13300;51.032;3.710;2022-08-03T07:27:11;13.50;;;2.58;;
25345;SDS011;13300;51.032;3.710;2022-08-03T07:29:37;11.55;;;2.42;;
25345;SDS011;13300;51.032;3.710;2022-08-03T07:32:03;13.15;;;2.53;;
25345;SDS011;13300;51.032;3.710;2022-08-03T07:34:29;13.35;;;2.35;;
25345;SDS011;13300;51.032;3.710;2022-08-03T07:36:56;10.77;;;2.28;;
25345;SDS011;13300;51.032;3.710;2022-08-03T07:39:21;8.40;;;2.30;;
25345;SDS011;13300;51.032;3.710;2022-08-03T07:41:47;7.13;;;2.42;;
25345;SDS011;13300;51.032;3.710;2022-08-03T07:44:15;9.88;;;2.45;;
25345;SDS011;13300;51.032;3.710;2022-08-03T07:46:44;10.10;;;2.33;;
25345;SDS011;13300;51.032;3.710;2022-08-03T07:49:10;10.93;;;2.42;;
25345;SDS011;13300;51.032;3.710;2022-08-03T07:51:36;14.15;;;3.28;;
25345;SDS011;13300;51.032;3.710;2022-08-03T07:54:02;12.52;;;2.67;;
25345;SDS011;13300;51.032;3.710;2022-08-03T07:56:28;17.45;;;2.60;;
25345;SDS011;13300;51.032;3.710;2022-08-03T07:58:54;11.15;;;2.40;;
25345;SDS011;13300;51.032;3.710;2022-08-03T08:01:20;11.80;;;2.33;;
25345;SDS011;13300;51.032;3.710;2022-08-03T08:03:46;8.07;;;2.05;;
25345;SDS011;13300;51.032;3.710;2022-08-03T08:06:13;10.75;;;2.30;;
25345;SDS011;13300;51.032;3.710;2022-08-03T08:08:39;11.40;;;2.28;;
25345;SDS011;13300;51.032;3.710;2022-08-03T08:11:05;8.55;;;2.67;;
25345;SDS011;13300;51.032;3.710;2022-08-03T08:13:31;7.35;;;2.60;;
25345;SDS011;13300;51.032;3.710;2022-08-03T08:15:57;10.20;;;2.30;;
25345;SDS011;13300;51.032;3.710;2022-08-03T08:18:23;9.65;;;2.38;;
25345;SDS011;13300;51.032;3.710;2022-08-03T08:20:49;12.80;;;2.35;;
25345;SDS011;13300;51.032;3.710;2022-08-03T08:23:15;14.32;;;2.70;;
25345;SDS011;13300;51.032;3.710;2022-08-03T08:25:47;11.65;;;2.50;;
25345;SDS011;13300;51.032;3.710;2022-08-03T08:28:16;9.80;;;2.05;;
25345;SDS011;13300;51.032;3.710;2022-08-03T08:30:42;11.25;;;3.05;;
25345;SDS011;13300;51.032;3.710;2022-08-03T08:33:08;15.73;;;2.50;;
25345;SDS011;13300;51.032;3.710;2022-08-03T08:35:34;8.30;;;2.53;;
25345;SDS011;13300;51.032;3.710;2022-08-03T08:38:00;14.63;;;2.28;;
25345;SDS011;13300;51.032;3.710;2022-08-03T08:40:25;10.32;;;2.20;;
25345;SDS011;13300;51.032;3.710;2022-08-03T08:42:54;12.50;;;2.38;;
25345;SDS011;13300;51.032;3.710;2022-08-03T08:45:19;13.25;;;2.40;;
25345;SDS011;13300;51.032;3.710;2022-08-03T08:47:46;11.48;;;2.67;;
25345;SDS011;13300;51.032;3.710;2022-08-03T08:50:17;11.80;;;2.45;;
25345;SDS011;13300;51.032;3.710;2022-08-03T08:52:46;9.45;;;2.45;;
25345;SDS011;13300;51.032;3.710;2022-08-03T08:55:14;7.93;;;2.15;;
25345;SDS011;13300;51.032;3.710;2022-08-03T08:57:47;7.22;;;1.83;;
25345;SDS011;13300;51.032;3.710;2022-08-03T09:00:15;11.13;;;2.75;;
25345;SDS011;13300;51.032;3.710;2022-08-03T09:02:42;10.90;;;2.20;;
25345;SDS011;13300;51.032;3.710;2022-08-03T09:05:09;8.30;;;2.13;;
25345;SDS011;13300;51.032;3.710;2022-08-03T09:07:40;12.27;;;2.40;;
25345;SDS011;13300;51.032;3.710;2022-08-03T09:10:07;6.43;;;2.10;;
25345;SDS011;13300;51.032;3.710;2022-08-03T09:12:38;10.27;;;2.20;;
25345;SDS011;13300;51.032;3.710;2022-08-03T09:15:20;8.50;;;2.20;;
25345;SDS011;13300;51.032;3.710;2022-08-03T09:17:49;13.57;;;2.55;;
25345;SDS011;13300;51.032;3.710;2022-08-03T09:20:16;13.77;;;2.63;;
25345;SDS011;13300;51.032;3.710;2022-08-03T09:22:57;8.73;;;2.28;;
25345;SDS011;13300;51.032;3.710;2022-08-03T09:30:38;12.90;;;2.47;;
25345;SDS011;13300;51.032;3.710;2022-08-03T09:33:07;9.03;;;2.00;;
25345;SDS011;13300;51.032;3.710;2022-08-03T09:35:44;11.57;;;1.92;;
25345;SDS011;13300;51.032;3.710;2022-08-03T09:40:38;10.07;;;2.47;;
25345;SDS011;13300;51.032;3.710;2022-08-03T09:43:04;8.77;;;2.25;;
25345;SDS011;13300;51.032;3.710;2022-08-03T09:45:32;7.18;;;1.77;;
25345;SDS011;13300;51.032;3.710;2022-08-03T09:51:02;10.05;;;2.20;;
25345;SDS011;13300;51.032;3.710;2022-08-03T09:53:29;9.75;;;2.33;;
25345;SDS011;13300;51.032;3.710;2022-08-03T09:55:59;11.38;;;2.25;;
25345;SDS011;13300;51.032;3.710;2022-08-03T09:58:27;6.18;;;1.85;;
25345;SDS011;13300;51.032;3.710;2022-08-03T10:00:58;10.80;;;2.07;;
25345;SDS011;13300;51.032;3.710;2022-08-03T10:03:26;7.63;;;1.70;;
25345;SDS011;13300;51.032;3.710;2022-08-03T10:06:13;7.78;;;2.22;;
25345;SDS011;13300;51.032;3.710;2022-08-03T10:08:40;5.45;;;1.75;;
25345;SDS011;13300;51.032;3.710;2022-08-03T10:11:06;11.13;;;1.95;;
25345;SDS011;13300;51.032;3.710;2022-08-03T10:13:32;6.35;;;2.20;;
25345;SDS011;13300;51.032;3.710;2022-08-03T10:15:58;6.40;;;2.10;;
25345;SDS011;13300;51.032;3.710;2022-08-03T10:18:24;7.03;;;1.90;;
25345;SDS011;13300;51.032;3.710;2022-08-03T10:20:58;9.18;;;2.03;;
25345;SDS011;13300;51.032;3.710;2022-08-03T10:23:28;8.93;;;2.97;;
25345;SDS011;13300;51.032;3.710;2022-08-03T10:26:00;10.45;;;1.90;;
25345;SDS011;13300;51.032;3.710;2022-08-03T10:28:27;8.55;;;1.67;;
25345;SDS011;13300;51.032;3.710;2022-08-03T10:31:06;8.67;;;2.13;;
25345;SDS011;13300;51.032;3.710;2022-08-03T10:33:36;6.93;;;1.77;;
25345;SDS011;13300;51.032;3.710;2022-08-03T10:36:05;5.75;;;1.48;;
25345;SDS011;13300;51.032;3.710;2022-08-03T10:38:34;9.73;;;1.70;;
25345;SDS011;13300;51.032;3.710;2022-08-03T10:41:04;5.10;;;1.45;;
25345;SDS011;13300;51.032;3.710;2022-08-03T10:43:40;5.65;;;1.83;;
25345;SDS011;13300;51.032;3.710;2022-08-03T10:46:12;9.35;;;1.95;;
25345;SDS011;13300;51.032;3.710;2022-08-03T10:48:39;8.55;;;1.75;;
25345;SDS011;13300;51.032;3.710;2022-08-03T10:51:05;7.75;;;1.70;;
25345;SDS011;13300;51.032;3.710;2022-08-03T10:53:35;8.43;;;1.77;;
25345;SDS011;13300;51.032;3.710;2022-08-03T10:56:06;5.85;;;1.67;;
25345;SDS011;13300;51.032;3.710;2022-08-03T10:59:55;7.18;;;1.73;;
25345;SDS011;13300;51.032;3.710;2022-08-03T11:02:11;8.82;;;1.60;;
25345;SDS011;13300;51.032;3.710;2022-08-03T11:04:41;8.23;;;1.90;;
25345;SDS011;13300;51.032;3.710;2022-08-03T11:09:47;8.88;;;1.98;;
25345;SDS011;13300;51.032;3.710;2022-08-03T11:14:56;6.00;;;1.42;;
25345;SDS011;13300;51.032;3.710;2022-08-03T11:17:34;7.07;;;1.58;;
25345;SDS011;13300;51.032;3.710;2022-08-03T11:20:02;5.78;;;1.60;;
25345;SDS011;13300;51.032;3.710;2022-08-03T11:23:03;4.28;;;1.50;;
25345;SDS011;13300;51.032;3.710;2022-08-03T11:25:25;7.70;;;1.48;;
25345;SDS011;13300;51.032;3.710;2022-08-03T11:28:10;6.68;;;1.30;;
25345;SDS011;13300;51.032;3.710;2022-08-03T11:30:50;3.60;;;1.20;;
25345;SDS011;13300;51.032;3.710;2022-08-03T11:33:27;7.72;;;1.58;;
25345;SDS011;13300;51.032;3.710;2022-08-03T11:36:00;4.47;;;1.30;;
25345;SDS011;13300;51.032;3.710;2022-08-03T11:41:40;7.25;;;1.38;;
25345;SDS011;13300;51.032;3.710;2022-08-03T11:44:06;5.43;;;1.58;;
25345;SDS011;13300;51.032;3.710;2022-08-03T11:46:52;3.15;;;1.13;;
25345;SDS011;13300;51.032;3.710;2022-08-03T11:49:18;4.55;;;1.27;;
25345;SDS011;13300;51.032;3.710;2022-08-03T11:51:54;3.90;;;1.55;;
25345;SDS011;13300;51.032;3.710;2022-08-03T11:54:23;8.90;;;1.60;;
25345;SDS011;13300;51.032;3.710;2022-08-03T11:56:49;5.13;;;1.25;;
25345;SDS011;13300;51.032;3.710;2022-08-03T11:59:16;5.95;;;1.60;;
25345;SDS011;13300;51.032;3.710;2022-08-03T12:01:42;5.30;;;1.42;;
25345;SDS011;13300;51.032;3.710;2022-08-03T12:04:10;5.53;;;1.40;;
25345;SDS011;13300;51.032;3.710;2022-08-03T12:06:35;5.38;;;1.15;;
25345;SDS011;13300;51.032;3.710;2022-08-03T12:09:20;14.80;;;1.55;;
25345;SDS011;13300;51.032;3.710;2022-08-03T12:11:50;7.18;;;1.98;;
25345;SDS011;13300;51.032;3.710;2022-08-03T12:14:17;3.55;;;1.40;;
25345;SDS011;13300;51.032;3.710;2022-08-03T12:16:47;7.28;;;1.73;;
25345;SDS011;13300;51.032;3.710;2022-08-03T12:21:45;3.97;;;1.33;;
25345;SDS011;13300;51.032;3.710;2022-08-03T12:24:14;4.35;;;1.20;;
25345;SDS011;13300;51.032;3.710;2022-08-03T12:26:47;5.75;;;1.73;;
25345;SDS011;13300;51.032;3.710;2022-08-03T12:29:16;3.63;;;1.40;;
25345;SDS011;13300;51.032;3.710;2022-08-03T12:31:42;4.68;;;1.25;;
25345;SDS011;13300;51.032;3.710;2022-08-03T12:34:08;3.05;;;1.50;;
25345;SDS011;13300;51.032;3.710;2022-08-03T12:36:34;5.10;;;1.75;;
25345;SDS011;13300;51.032;3.710;2022-08-03T12:39:05;2.65;;;1.17;;
25345;SDS011;13300;51.032;3.710;2022-08-03T12:41:36;7.43;;;1.42;;
25345;SDS011;13300;51.032;3.710;2022-08-03T12:44:07;9.88;;;1.52;;
25345;SDS011;13300;51.032;3.710;2022-08-03T12:46:37;6.55;;;1.52;;
25345;SDS011;13300;51.032;3.710;2022-08-03T12:49:08;5.88;;;1.20;;
25345;SDS011;13300;51.032;3.710;2022-08-03T12:54:09;6.20;;;1.58;;
25345;SDS011;13300;51.032;3.710;2022-08-03T12:56:59;7.03;;;1.58;;
25345;SDS011;13300;51.032;3.710;2022-08-03T12:59:26;6.95;;;1.50;;
25345;SDS011;13300;51.032;3.710;2022-08-03T13:01:53;4.32;;;1.73;;
25345;SDS011;13300;51.032;3.710;2022-08-03T13:04:32;3.35;;;1.30;;
25345;SDS011;13300;51.032;3.710;2022-08-03T13:07:03;7.05;;;2.03;;
25345;SDS011;13300;51.032;3.710;2022-08-03T13:09:39;3.95;;;1.40;;
25345;SDS011;13300;51.032;3.710;2022-08-03T13:12:16;4.28;;;1.33;;
25345;SDS011;13300;51.032;3.710;2022-08-03T13:14:54;12.40;;;1.58;;
25345;SDS011;13300;51.032;3.710;2022-08-03T13:17:23;4.72;;;1.50;;
25345;SDS011;13300;51.032;3.710;2022-08-03T13:19:49;5.18;;;1.50;;
25345;SDS011;13300;51.032;3.710;2022-08-03T13:22:19;4.63;;;1.38;;
25345;SDS011;13300;51.032;3.710;2022-08-03T13:24:48;5.72;;;1.10;;
25345;SDS011;13300;51.032;3.710;2022-08-03T13:27:15;10.48;;;1.40;;
25345;SDS011;13300;51.032;3.710;2022-08-03T13:29:42;3.08;;;1.40;;
25345;SDS011;13300;51.032;3.710;2022-08-03T13:32:08;6.68;;;1.40;;
25345;SDS011;13300;51.032;3.710;2022-08-03T13:34:34;5.43;;;1.63;;
25345;SDS011;13300;51.032;3.710;2022-08-03T13:37:01;8.18;;;2.53;;
25345;SDS011;13300;51.032;3.710;2022-08-03T13:39:27;5.30;;;1.60;;
25345;SDS011;13300;51.032;3.710;2022-08-03T13:41:53;5.88;;;1.45;;
25345;SDS011;13300;51.032;3.710;2022-08-03T13:44:18;5.38;;;1.52;;
25345;SDS011;13300;51.032;3.710;2022-08-03T13:46:44;6.88;;;1.65;;
25345;SDS011;13300;51.032;3.710;2022-08-03T13:49:11;3.95;;;1.60;;
25345;SDS011;13300;51.032;3.710;2022-08-03T13:51:37;3.55;;;1.23;;
25345;SDS011;13300;51.032;3.710;2022-08-03T13:54:03;2.83;;;1.20;;
25345;SDS011;13300;51.032;3.710;2022-08-03T13:56:29;3.60;;;1.67;;
25345;SDS011;13300;51.032;3.710;2022-08-03T13:58:55;2.92;;;1.50;;
25345;SDS011;13300;51.032;3.710;2022-08-03T14:01:22;2.67;;;1.40;;
25345;SDS011;13300;51.032;3.710;2022-08-03T14:03:58;7.45;;;1.58;;
25345;SDS011;13300;51.032;3.710;2022-08-03T14:06:24;3.80;;;1.38;;
25345;SDS011;13300;51.032;3.710;2022-08-03T14:08:50;4.88;;;1.40;;
25345;SDS011;13300;51.032;3.710;2022-08-03T14:11:16;3.60;;;1.08;;
25345;SDS011;13300;51.032;3.710;2022-08-03T14:13:42;9.52;;;1.92;;
25345;SDS011;13300;51.032;3.710;2022-08-03T14:16:08;5.85;;;1.50;;
25345;SDS011;13300;51.032;3.710;2022-08-03T14:18:34;3.80;;;1.27;;
25345;SDS011;13300;51.032;3.710;2022-08-03T14:21:01;4.22;;;1.55;;
25345;SDS011;13300;51.032;3.710;2022-08-03T14:23:29;5.17;;;1.30;;
25345;SDS011;13300;51.032;3.710;2022-08-03T14:25:55;7.03;;;1.40;;
25345;SDS011;13300;51.032;3.710;2022-08-03T14:28:21;3.70;;;1.38;;
25345;SDS011;13300;51.032;3.710;2022-08-03T14:30:53;4.25;;;1.23;;
25345;SDS011;13300;51.032;3.710;2022-08-03T14:33:22;11.35;;;1.77;;
25345;SDS011;13300;51.032;3.710;2022-08-03T14:35:49;4.72;;;1.63;;
25345;SDS011;13300;51.032;3.710;2022-08-03T14:38:18;3.80;;;1.23;;
25345;SDS011;13300;51.032;3.710;2022-08-03T14:40:45;4.85;;;1.33;;
25345;SDS011;13300;51.032;3.710;2022-08-03T14:43:11;5.57;;;1.17;;
25345;SDS011;13300;51.032;3.710;2022-08-03T14:45:37;5.38;;;1.30;;
25345;SDS011;13300;51.032;3.710;2022-08-03T14:48:04;3.72;;;1.38;;
25345;SDS011;13300;51.032;3.710;2022-08-03T14:50:29;4.18;;;1.27;;
25345;SDS011;13300;51.032;3.710;2022-08-03T14:52:55;3.33;;;1.00;;
25345;SDS011;13300;51.032;3.710;2022-08-03T14:55:21;2.78;;;1.50;;
25345;SDS011;13300;51.032;3.710;2022-08-03T14:57:47;6.90;;;1.80;;
25345;SDS011;13300;51.032;3.710;2022-08-03T15:00:13;6.53;;;1.25;;
25345;SDS011;13300;51.032;3.710;2022-08-03T15:02:39;1.60;;;1.05;;
25345;SDS011;13300;51.032;3.710;2022-08-03T15:05:05;4.57;;;1.60;;
25345;SDS011;13300;51.032;3.710;2022-08-03T15:07:31;6.78;;;1.35;;
25345;SDS011;13300;51.032;3.710;2022-08-03T15:09:57;2.42;;;1.27;;
25345;SDS011;13300;51.032;3.710;2022-08-03T15:12:23;3.78;;;1.35;;
25345;SDS011;13300;51.032;3.710;2022-08-03T15:14:52;5.72;;;1.60;;
25345;SDS011;13300;51.032;3.710;2022-08-03T15:17:18;4.70;;;1.48;;
25345;SDS011;13300;51.032;3.710;2022-08-03T15:19:44;1.77;;;1.15;;
25345;SDS011;13300;51.032;3.710;2022-08-03T15:22:10;2.97;;;1.23;;
25345;SDS011;13300;51.032;3.710;2022-08-03T15:24:35;2.58;;;1.27;;
25345;SDS011;13300;51.032;3.710;2022-08-03T15:30:22;5.28;;;1.55;;
25345;SDS011;13300;51.032;3.710;2022-08-03T15:33:02;2.58;;;1.50;;
25345;SDS011;13300;51.032;3.710;2022-08-03T15:35:36;5.65;;;1.35;;
25345;SDS011;13300;51.032;3.710;2022-08-03T15:41:33;3.00;;;1.20;;
25345;SDS011;13300;51.032;3.710;2022-08-03T15:44:20;1.65;;;0.88;;
25345;SDS011;13300;51.032;3.710;2022-08-03T15:46:46;1.42;;;1.08;;